createdAt,value
2017-08-22T00:01:53.682Z,2.83
2017-08-22T00:04:21.989Z,3.10
2017-08-22T00:06:50.298Z,3.57
2017-08-22T00:09:18.604Z,3.33
2017-08-22T00:11:46.926Z,3.80
2017-08-22T00:14:15.241Z,3.87
2017-08-22T00:16:43.699Z,3.43
2017-08-22T00:19:12.004Z,3.83
2017-08-22T00:21:40.310Z,3.80
2017-08-22T00:24:08.646Z,3.80
2017-08-22T00:26:36.962Z,3.87
2017-08-22T00:29:05.261Z,4.50
2017-08-22T00:31:33.569Z,4.57
2017-08-22T00:34:01.879Z,4.10
2017-08-22T00:36:31.178Z,4.27
2017-08-22T00:38:59.474Z,3.60
2017-08-22T00:41:27.782Z,4.10
2017-08-22T00:43:56.086Z,4.10
2017-08-22T00:46:24.409Z,5.00
2017-08-22T00:48:52.704Z,3.70
2017-08-22T00:51:21.005Z,3.60
2017-08-22T00:53:49.318Z,3.93
2017-08-22T00:56:17.629Z,3.87
2017-08-22T00:58:45.947Z,3.80
2017-08-22T01:01:14.246Z,4.17
2017-08-22T01:03:42.558Z,3.63
2017-08-22T01:06:10.852Z,4.17
2017-08-22T01:08:39.157Z,4.03
2017-08-22T01:11:07.449Z,3.80
2017-08-22T01:13:35.764Z,4.20
2017-08-22T01:16:04.062Z,4.13
2017-08-22T01:18:32.363Z,4.10
2017-08-22T01:21:00.694Z,4.13
2017-08-22T01:23:29.074Z,4.43
2017-08-22T01:25:57.386Z,3.67
2017-08-22T01:28:25.677Z,3.90
2017-08-22T01:30:54.014Z,3.63
2017-08-22T01:33:22.305Z,3.77
2017-08-22T01:35:50.661Z,3.93
2017-08-22T01:38:18.970Z,3.73
2017-08-22T01:40:47.289Z,3.80
2017-08-22T01:43:15.586Z,3.40
2017-08-22T01:45:43.887Z,4.83
2017-08-22T01:48:12.190Z,4.23
2017-08-22T01:50:40.483Z,3.90
2017-08-22T01:53:08.810Z,4.70
2017-08-22T01:55:37.098Z,4.97
2017-08-22T01:58:05.422Z,4.67
2017-08-22T02:00:33.741Z,4.70
2017-08-22T02:03:02.046Z,4.20
2017-08-22T02:05:30.348Z,5.40
2017-08-22T02:07:58.669Z,4.70
2017-08-22T02:10:26.977Z,4.27
2017-08-22T02:12:55.280Z,5.13
2017-08-22T02:15:23.656Z,5.20
2017-08-22T02:17:51.961Z,5.07
2017-08-22T02:20:20.269Z,5.97
2017-08-22T02:22:48.569Z,5.50
2017-08-22T02:25:16.898Z,5.87
2017-08-22T02:27:45.202Z,5.60
2017-08-22T02:30:13.604Z,5.30
2017-08-22T02:32:41.908Z,5.73
2017-08-22T02:35:10.217Z,6.10
2017-08-22T02:37:38.517Z,5.20
2017-08-22T02:40:06.835Z,5.57
2017-08-22T02:42:35.138Z,6.37
2017-08-22T02:45:03.453Z,7.80
2017-08-22T02:47:31.792Z,5.90
2017-08-22T02:50:00.106Z,7.33
2017-08-22T02:52:28.432Z,7.73
2017-08-22T02:54:56.746Z,6.60
2017-08-22T02:57:25.078Z,8.47
2017-08-22T02:59:53.391Z,8.40
2017-08-22T03:02:21.705Z,8.90
2017-08-22T03:04:50.025Z,6.50
2017-08-22T03:07:18.358Z,7.80
2017-08-22T03:09:46.662Z,8.07
2017-08-22T03:12:14.965Z,7.80
2017-08-22T03:14:43.273Z,7.67
2017-08-22T03:17:11.577Z,7.30
2017-08-22T03:19:39.887Z,7.43
2017-08-22T03:22:08.187Z,8.07
2017-08-22T03:24:36.494Z,7.40
2017-08-22T03:27:04.817Z,7.90
2017-08-22T03:29:33.138Z,8.53
2017-08-22T03:32:01.443Z,9.27
2017-08-22T03:34:29.766Z,9.43
2017-08-22T03:36:58.082Z,7.60
2017-08-22T03:39:26.446Z,7.27
2017-08-22T03:41:54.749Z,9.97
2017-08-22T03:44:23.058Z,10.03
2017-08-22T03:46:52.144Z,10.30
2017-08-22T03:49:20.448Z,8.30
2017-08-22T03:51:48.762Z,8.10
2017-08-22T03:54:17.069Z,8.37
2017-08-22T03:56:45.389Z,8.93
2017-08-22T03:59:13.701Z,9.77
2017-08-22T04:01:42.013Z,9.97
2017-08-22T04:04:10.313Z,8.37
2017-08-22T04:06:38.624Z,9.20
2017-08-22T04:09:06.929Z,8.93
2017-08-22T04:11:35.242Z,8.23
2017-08-22T04:14:03.569Z,9.67
2017-08-22T04:16:31.903Z,8.60
2017-08-22T04:19:00.213Z,8.27
2017-08-22T04:21:28.506Z,8.20
2017-08-22T04:23:56.804Z,7.20
2017-08-22T04:26:25.109Z,8.77
2017-08-22T04:28:53.421Z,8.67
2017-08-22T04:31:21.732Z,8.30
2017-08-22T04:33:50.038Z,9.60
2017-08-22T04:36:18.350Z,8.20
2017-08-22T04:38:46.679Z,9.20
2017-08-22T04:41:14.997Z,8.00
2017-08-22T04:43:43.357Z,7.93
2017-08-22T04:46:11.670Z,9.40
2017-08-22T04:48:40.026Z,8.37
2017-08-22T04:51:08.338Z,9.80
2017-08-22T04:53:36.641Z,8.50
2017-08-22T04:56:04.970Z,9.70
2017-08-22T04:58:33.281Z,8.43
2017-08-22T05:01:01.592Z,8.50
2017-08-22T05:03:29.911Z,8.30
2017-08-22T05:05:58.270Z,8.50
2017-08-22T05:08:26.575Z,7.90
2017-08-22T05:10:54.888Z,8.30
2017-08-22T05:13:23.202Z,8.73
2017-08-22T05:15:51.506Z,9.07
2017-08-22T05:18:19.819Z,8.30
2017-08-22T05:20:48.118Z,9.27
2017-08-22T05:23:16.436Z,8.10
2017-08-22T05:25:44.764Z,8.50
2017-08-22T05:28:13.087Z,7.70
2017-08-22T05:30:41.402Z,7.83
2017-08-22T05:33:09.709Z,7.60
2017-08-22T05:35:38.034Z,8.17
2017-08-22T05:38:06.395Z,7.00
2017-08-22T05:40:34.718Z,6.40
2017-08-22T05:43:03.028Z,6.97
2017-08-22T05:45:31.342Z,7.90
2017-08-22T05:47:59.654Z,6.50
2017-08-22T05:50:27.971Z,6.77
2017-08-22T05:52:56.281Z,5.80
2017-08-22T05:55:24.604Z,5.90
2017-08-22T05:57:52.938Z,5.87
2017-08-22T06:00:21.241Z,5.60
2017-08-22T06:02:49.554Z,4.87
2017-08-22T06:05:17.926Z,5.37
2017-08-22T06:07:46.242Z,4.37
2017-08-22T06:10:14.576Z,4.57
2017-08-22T06:12:42.881Z,4.67
2017-08-22T06:15:11.186Z,5.43
2017-08-22T06:17:39.514Z,4.50
2017-08-22T06:20:07.862Z,5.13
2017-08-22T06:22:36.174Z,4.27
2017-08-22T06:25:04.486Z,4.80
2017-08-22T06:27:32.800Z,3.57
2017-08-22T06:30:01.114Z,2.43
2017-08-22T06:32:29.421Z,2.00
2017-08-22T06:34:57.717Z,2.13
2017-08-22T06:37:26.026Z,2.00
2017-08-22T06:39:54.986Z,2.77
2017-08-22T06:42:23.306Z,2.00
2017-08-22T06:44:51.621Z,2.23
2017-08-22T06:47:20.275Z,2.50
2017-08-22T06:49:48.586Z,2.00
2017-08-22T06:52:16.894Z,2.10
2017-08-22T06:54:45.245Z,2.53
2017-08-22T06:57:13.541Z,2.67
2017-08-22T06:59:41.865Z,2.37
2017-08-22T07:02:10.175Z,2.00
2017-08-22T07:04:38.486Z,2.00
2017-08-22T07:07:06.806Z,2.73
2017-08-22T07:09:35.122Z,2.20
2017-08-22T07:12:03.437Z,1.90
2017-08-22T07:14:31.745Z,2.60
2017-08-22T07:17:00.050Z,1.90
2017-08-22T07:19:28.357Z,1.50
2017-08-22T07:21:56.689Z,2.17
2017-08-22T07:24:24.990Z,1.90
2017-08-22T07:26:53.284Z,2.00
2017-08-22T07:29:21.630Z,1.77
2017-08-22T07:31:49.962Z,2.20
2017-08-22T07:34:18.283Z,2.00
2017-08-22T07:36:46.577Z,2.17
2017-08-22T07:39:14.895Z,1.50
2017-08-22T07:41:43.210Z,2.03
2017-08-22T07:44:11.578Z,2.07
2017-08-22T07:46:39.894Z,2.17
2017-08-22T07:49:08.202Z,1.80
2017-08-22T07:51:36.514Z,1.93
2017-08-22T07:54:04.839Z,1.50
2017-08-22T07:56:33.190Z,1.80
2017-08-22T07:59:01.506Z,1.30
2017-08-22T08:01:29.815Z,1.27
2017-08-22T08:03:58.146Z,1.57
2017-08-22T08:06:26.451Z,1.90
2017-08-22T08:08:54.749Z,1.27
2017-08-22T08:11:23.057Z,1.80
2017-08-22T08:13:51.366Z,1.57
2017-08-22T08:16:19.726Z,1.60
2017-08-22T08:18:48.058Z,1.80
2017-08-22T08:21:16.393Z,1.50
2017-08-22T08:23:44.714Z,1.90
2017-08-22T08:26:13.021Z,1.57
2017-08-22T08:28:41.411Z,1.87
2017-08-22T08:31:09.720Z,2.33
2017-08-22T08:33:38.041Z,1.60
2017-08-22T08:36:06.343Z,1.57
2017-08-22T08:38:34.680Z,1.37
2017-08-22T08:41:02.988Z,1.77
2017-08-22T08:43:31.309Z,1.23
2017-08-22T08:45:59.626Z,1.17
2017-08-22T08:48:27.929Z,1.13
2017-08-22T08:50:56.267Z,1.30
2017-08-22T08:53:24.584Z,1.80
2017-08-22T08:55:52.877Z,1.50
2017-08-22T08:58:21.193Z,1.13
2017-08-22T09:00:49.485Z,1.53
2017-08-22T09:03:17.823Z,1.57
2017-08-22T09:05:46.124Z,2.10
2017-08-22T09:08:14.430Z,1.33
2017-08-22T09:10:42.739Z,1.50
2017-08-22T09:13:11.110Z,1.20
2017-08-22T09:15:39.450Z,1.00
2017-08-22T09:18:07.749Z,1.57
2017-08-22T09:20:36.056Z,1.17
2017-08-22T09:23:04.371Z,0.63
2017-08-22T09:25:32.684Z,1.13
2017-08-22T09:28:01.014Z,1.00
2017-08-22T09:30:29.315Z,1.50
2017-08-22T09:32:57.634Z,0.80
2017-08-22T09:35:25.953Z,0.90
2017-08-22T09:37:54.284Z,1.20
2017-08-22T09:40:22.594Z,1.23
2017-08-22T09:42:50.893Z,1.30
2017-08-22T09:47:53.698Z,1.20
2017-08-22T09:50:22.037Z,1.13
2017-08-22T09:52:50.394Z,1.27
2017-08-22T09:55:18.702Z,1.10
2017-08-22T09:57:47.010Z,1.17
2017-08-22T10:00:15.306Z,1.10
2017-08-22T10:02:43.637Z,1.67
2017-08-22T10:05:11.936Z,1.70
2017-08-22T10:07:40.233Z,1.10
2017-08-22T10:10:08.569Z,1.80
2017-08-22T10:12:36.889Z,1.33
2017-08-22T10:15:05.185Z,1.13
2017-08-22T10:17:33.512Z,1.30
2017-08-22T10:20:01.813Z,1.43
2017-08-22T10:22:30.118Z,1.20
2017-08-22T10:24:58.441Z,1.10
2017-08-22T10:27:26.742Z,1.17
2017-08-22T10:29:55.044Z,1.43
2017-08-22T10:32:23.421Z,1.20
2017-08-22T10:34:51.729Z,0.90
2017-08-22T10:37:20.033Z,0.97
2017-08-22T10:39:48.370Z,0.70
2017-08-22T10:42:16.679Z,0.80
2017-08-22T10:44:44.969Z,0.77
2017-08-22T10:47:13.299Z,1.10
2017-08-22T10:49:41.606Z,1.20
2017-08-22T10:52:09.923Z,1.37
2017-08-22T10:54:38.253Z,1.17
2017-08-22T10:57:06.553Z,1.30
2017-08-22T10:59:34.861Z,1.70
2017-08-22T11:02:03.197Z,1.03
2017-08-22T11:04:31.505Z,1.00
2017-08-22T11:06:59.802Z,0.73
2017-08-22T11:09:28.137Z,1.20
2017-08-22T11:11:56.449Z,1.90
2017-08-22T11:14:24.746Z,1.40
2017-08-22T11:16:53.089Z,1.23
2017-08-22T11:19:21.395Z,1.70
2017-08-22T11:21:49.702Z,1.87
2017-08-22T11:24:18.056Z,1.00
2017-08-22T11:26:46.366Z,1.40
2017-08-22T11:29:14.668Z,1.40
2017-08-22T11:31:43.007Z,1.20
2017-08-22T11:34:11.325Z,1.17
2017-08-22T11:36:39.626Z,1.30
2017-08-22T11:39:08.086Z,1.20
2017-08-22T11:41:36.398Z,1.27
2017-08-22T11:44:04.718Z,1.40
2017-08-22T11:46:33.025Z,1.40
2017-08-22T11:49:01.347Z,1.40
2017-08-22T11:51:29.637Z,1.20
2017-08-22T11:53:57.949Z,1.80
2017-08-22T11:56:26.257Z,1.30
2017-08-22T11:58:54.585Z,1.23
2017-08-22T12:01:22.898Z,0.93
2017-08-22T12:03:51.193Z,1.60
2017-08-22T12:06:19.502Z,2.07
2017-08-22T12:08:47.806Z,1.33
2017-08-22T12:11:16.120Z,1.30
2017-08-22T12:13:44.430Z,2.07
2017-08-22T12:16:12.737Z,0.97
2017-08-22T12:18:41.052Z,1.43
2017-08-22T12:21:09.377Z,2.00
2017-08-22T12:23:37.690Z,1.20
2017-08-22T12:26:05.999Z,1.40
2017-08-22T12:28:34.310Z,1.30
2017-08-22T12:31:02.635Z,1.10
2017-08-22T12:33:30.950Z,1.63
2017-08-22T12:35:59.253Z,1.83
2017-08-22T12:38:27.582Z,1.67
2017-08-22T12:40:55.877Z,1.23
2017-08-22T12:43:24.185Z,1.20
2017-08-22T12:45:52.513Z,1.30
2017-08-22T12:48:20.814Z,1.63
2017-08-22T12:50:49.126Z,1.43
2017-08-22T12:53:17.427Z,1.33
2017-08-22T12:55:45.744Z,1.50
2017-08-22T12:58:14.050Z,2.40
2017-08-22T13:00:42.391Z,1.60
2017-08-22T13:03:10.684Z,1.57
2017-08-22T13:05:39.014Z,2.07
2017-08-22T13:08:07.327Z,1.70
2017-08-22T13:10:35.661Z,1.10
2017-08-22T13:13:03.973Z,1.30
2017-08-22T13:15:32.278Z,1.40
2017-08-22T13:18:00.619Z,1.47
2017-08-22T13:20:28.921Z,1.60
2017-08-22T13:22:57.221Z,1.57
2017-08-22T13:25:25.529Z,1.80
2017-08-22T13:27:53.847Z,1.63
2017-08-22T13:30:22.153Z,1.67
2017-08-22T13:32:50.471Z,1.83
2017-08-22T13:35:18.783Z,1.90
2017-08-22T13:37:47.090Z,1.60
2017-08-22T13:40:15.422Z,2.40
2017-08-22T13:42:43.742Z,1.57
2017-08-22T13:45:12.046Z,1.53
2017-08-22T13:47:40.363Z,1.63
2017-08-22T13:50:08.704Z,2.00
2017-08-22T13:52:37.018Z,2.23
2017-08-22T13:55:05.322Z,2.30
2017-08-22T13:57:33.633Z,1.83
2017-08-22T14:00:01.941Z,1.50
2017-08-22T14:02:30.284Z,2.20
2017-08-22T14:04:58.597Z,1.53
2017-08-22T14:07:26.905Z,2.23
2017-08-22T14:09:55.221Z,1.77
2017-08-22T14:12:23.520Z,2.00
2017-08-22T14:14:51.834Z,2.37
2017-08-22T14:17:20.146Z,1.67
2017-08-22T14:19:48.473Z,1.77
2017-08-22T14:22:16.794Z,1.90
2017-08-22T14:24:45.104Z,1.93
2017-08-22T14:27:13.417Z,1.90
2017-08-22T14:29:41.730Z,2.03
2017-08-22T14:32:10.047Z,1.77
2017-08-22T14:34:38.363Z,1.90
2017-08-22T14:37:06.684Z,1.70
2017-08-22T14:39:34.999Z,2.43
2017-08-22T14:42:03.319Z,2.60
2017-08-22T14:44:31.622Z,1.50
2017-08-22T14:46:59.958Z,1.50
2017-08-22T14:49:28.262Z,2.30
2017-08-22T14:51:56.571Z,1.57
2017-08-22T14:54:24.886Z,2.10
2017-08-22T14:56:53.204Z,1.97
2017-08-22T14:59:21.521Z,1.60
2017-08-22T15:01:49.830Z,1.50
2017-08-22T15:04:18.137Z,1.60
2017-08-22T15:06:46.444Z,1.80
2017-08-22T15:09:14.798Z,1.70
2017-08-22T15:11:43.105Z,1.83
2017-08-22T15:14:11.415Z,2.00
2017-08-22T15:16:39.732Z,2.00
2017-08-22T15:19:08.088Z,1.80
2017-08-22T15:21:36.407Z,1.40
2017-08-22T15:24:04.724Z,2.40
2017-08-22T15:26:33.038Z,2.03
2017-08-22T15:29:01.343Z,1.90
2017-08-22T15:31:29.682Z,1.50
2017-08-22T15:33:57.986Z,1.53
2017-08-22T15:36:26.312Z,2.23
2017-08-22T15:38:54.630Z,1.80
2017-08-22T15:41:22.930Z,2.20
2017-08-22T15:43:51.245Z,1.63
2017-08-22T15:46:19.554Z,2.07
2017-08-22T15:48:47.894Z,1.50
2017-08-22T15:51:16.202Z,1.60
2017-08-22T15:53:44.514Z,1.73
2017-08-22T15:56:12.810Z,2.03
2017-08-22T15:58:41.133Z,1.30
2017-08-22T16:01:09.443Z,1.67
2017-08-22T16:03:37.752Z,1.80
2017-08-22T16:06:06.062Z,1.87
2017-08-22T16:08:34.354Z,1.60
2017-08-22T16:11:02.666Z,1.47
2017-08-22T16:13:30.982Z,1.70
2017-08-22T16:15:59.293Z,2.90
2017-08-22T16:18:27.611Z,1.70
2017-08-22T16:20:55.940Z,2.13
2017-08-22T16:23:24.292Z,2.17
2017-08-22T16:25:52.585Z,2.10
2017-08-22T16:28:20.897Z,1.50
2017-08-22T16:30:49.235Z,1.93
2017-08-22T16:33:17.546Z,2.13
2017-08-22T16:35:45.858Z,1.73
2017-08-22T16:38:14.165Z,1.80
2017-08-22T16:40:42.493Z,2.03
2017-08-22T16:43:10.813Z,1.57
2017-08-22T16:45:39.123Z,1.93
2017-08-22T16:48:07.438Z,2.10
2017-08-22T16:50:35.749Z,2.20
2017-08-22T16:53:04.055Z,1.77
2017-08-22T16:55:32.373Z,1.67
2017-08-22T16:58:00.675Z,2.40
2017-08-22T17:00:28.990Z,2.30
2017-08-22T17:02:57.297Z,2.10
2017-08-22T17:05:25.605Z,2.20
2017-08-22T17:07:53.900Z,1.93
2017-08-22T17:10:22.237Z,2.27
2017-08-22T17:12:50.546Z,2.63
2017-08-22T17:15:18.846Z,1.83
2017-08-22T17:17:47.179Z,2.87
2017-08-22T17:20:15.487Z,1.83
2017-08-22T17:22:43.792Z,1.53
2017-08-22T17:25:12.106Z,2.57
2017-08-22T17:27:40.435Z,3.10
2017-08-22T17:30:08.775Z,2.43
2017-08-22T17:32:37.118Z,2.20
2017-08-22T17:35:05.422Z,2.07
2017-08-22T17:37:33.729Z,2.20
2017-08-22T17:40:02.050Z,2.27
2017-08-22T17:42:30.359Z,1.87
2017-08-22T17:44:58.669Z,1.83
2017-08-22T17:47:26.983Z,2.30
2017-08-22T17:49:55.293Z,2.53
2017-08-22T17:52:23.592Z,1.97
2017-08-22T17:54:51.939Z,2.20
2017-08-22T17:57:20.251Z,2.23
2017-08-22T17:59:48.563Z,2.20
2017-08-22T18:02:16.879Z,2.30
2017-08-22T18:04:45.173Z,2.20
2017-08-22T18:07:13.502Z,2.60
2017-08-22T18:09:41.801Z,2.10
2017-08-22T18:12:10.118Z,2.03
2017-08-22T18:14:39.214Z,2.67
2017-08-22T18:17:07.563Z,2.20
2017-08-22T18:19:35.874Z,2.47
2017-08-22T18:22:04.181Z,2.10
2017-08-22T18:24:32.498Z,2.57
2017-08-22T18:27:00.821Z,2.77
2017-08-22T18:29:29.142Z,2.23
2017-08-22T18:31:57.450Z,2.17
2017-08-22T18:34:25.762Z,2.20
2017-08-22T18:36:54.074Z,2.30
2017-08-22T18:39:22.415Z,1.97
2017-08-22T18:41:50.718Z,2.53
2017-08-22T18:44:19.407Z,2.50
2017-08-22T18:46:47.717Z,2.17
2017-08-22T18:49:16.030Z,2.40
2017-08-22T18:51:44.342Z,2.93
2017-08-22T18:54:12.640Z,3.07
2017-08-22T18:56:40.962Z,3.87
2017-08-22T18:59:09.276Z,3.33
2017-08-22T19:01:37.608Z,2.83
2017-08-22T19:04:05.914Z,2.80
2017-08-22T19:06:34.223Z,2.30
2017-08-22T19:09:02.545Z,2.70
2017-08-22T19:11:30.849Z,2.57
2017-08-22T19:13:59.166Z,3.80
2017-08-22T19:16:27.474Z,3.40
2017-08-22T19:18:55.791Z,3.47
2017-08-22T19:21:24.089Z,4.07
2017-08-22T19:23:52.401Z,3.43
2017-08-22T19:26:20.713Z,3.10
2017-08-22T19:28:49.056Z,2.93
2017-08-22T19:31:17.375Z,3.53
2017-08-22T19:33:45.694Z,3.50
2017-08-22T19:36:14.010Z,4.00
2017-08-22T19:38:42.323Z,3.37
2017-08-22T19:41:10.647Z,3.77
2017-08-22T19:43:38.954Z,4.00
2017-08-22T19:46:07.270Z,3.43
2017-08-22T19:48:35.574Z,5.13
2017-08-22T19:51:03.911Z,4.80
2017-08-22T19:53:32.234Z,3.27
2017-08-22T19:56:00.537Z,4.73
2017-08-22T19:58:28.850Z,3.77
2017-08-22T20:00:57.169Z,4.73
2017-08-22T20:03:25.485Z,4.10
2017-08-22T20:05:53.795Z,4.50
2017-08-22T20:08:22.112Z,4.27
2017-08-22T20:10:50.440Z,4.20
2017-08-22T20:13:18.739Z,4.17
2017-08-22T20:15:47.066Z,4.43
2017-08-22T20:18:15.378Z,4.47
2017-08-22T20:20:43.701Z,4.43
2017-08-22T20:23:12.006Z,3.97
2017-08-22T20:25:40.347Z,4.80
2017-08-22T20:28:08.666Z,4.90
2017-08-22T20:30:36.980Z,4.37
2017-08-22T20:33:05.293Z,4.97
2017-08-22T20:35:33.602Z,5.30
2017-08-22T20:38:01.906Z,4.93
2017-08-22T20:40:30.220Z,4.30
2017-08-22T20:42:58.535Z,7.83
2017-08-22T20:45:26.866Z,4.90
2017-08-22T20:47:55.178Z,5.43
2017-08-22T20:50:23.497Z,5.30
2017-08-22T20:52:51.807Z,4.50
2017-08-22T20:55:20.182Z,4.90
2017-08-22T20:57:48.493Z,5.00
2017-08-22T21:00:16.811Z,5.47
2017-08-22T21:02:45.123Z,4.60
2017-08-22T21:05:13.461Z,5.10
2017-08-22T21:07:41.774Z,5.20
2017-08-22T21:10:10.083Z,4.90
2017-08-22T21:12:38.409Z,4.90
2017-08-22T21:15:06.714Z,4.80
2017-08-22T21:17:35.041Z,4.30
2017-08-22T21:20:03.349Z,4.73
2017-08-22T21:22:31.667Z,4.40
2017-08-22T21:24:59.977Z,4.70
2017-08-22T21:27:28.313Z,4.20
2017-08-22T21:29:56.613Z,4.03
2017-08-22T21:32:24.916Z,6.13
2017-08-22T21:34:53.233Z,4.90
2017-08-22T21:37:21.552Z,4.87
2017-08-22T21:39:49.867Z,4.50
2017-08-22T21:42:18.172Z,5.10
2017-08-22T21:44:46.487Z,5.10
2017-08-22T21:47:14.793Z,5.10
2017-08-22T21:49:43.142Z,4.13
2017-08-22T21:52:11.461Z,4.57
2017-08-22T21:54:39.759Z,5.23
2017-08-22T21:57:08.090Z,4.53
2017-08-22T21:59:36.390Z,5.40
2017-08-22T22:02:04.699Z,4.80
2017-08-22T22:04:33.042Z,5.23
2017-08-22T22:07:01.342Z,4.63
2017-08-22T22:09:29.649Z,4.97
2017-08-22T22:11:57.982Z,4.37
2017-08-22T22:14:26.277Z,4.10
2017-08-22T22:16:54.585Z,4.77
2017-08-22T22:19:22.930Z,4.50
2017-08-22T22:21:51.242Z,4.87
2017-08-22T22:24:19.545Z,4.43
2017-08-22T22:26:47.888Z,4.20
2017-08-22T22:29:16.196Z,3.93
2017-08-22T22:31:44.499Z,4.23
2017-08-22T22:34:12.837Z,5.13
2017-08-22T22:36:41.142Z,4.90
2017-08-22T22:39:09.446Z,5.30
2017-08-22T22:41:37.779Z,5.03
2017-08-22T22:44:06.074Z,5.57
2017-08-22T22:46:34.373Z,5.37
2017-08-22T22:49:02.750Z,5.13
2017-08-22T22:51:31.070Z,5.70
2017-08-22T22:53:59.442Z,8.70
2017-08-22T22:56:27.786Z,9.20
2017-08-22T22:58:56.095Z,10.50
2017-08-22T23:01:24.399Z,9.23
2017-08-22T23:03:52.751Z,9.37
2017-08-22T23:06:21.057Z,8.90
2017-08-22T23:08:49.370Z,8.10
2017-08-22T23:11:18.085Z,9.00
2017-08-22T23:13:46.385Z,6.80
2017-08-22T23:16:14.678Z,7.50
2017-08-22T23:18:43.022Z,7.50
2017-08-22T23:21:11.333Z,7.47
2017-08-22T23:23:39.641Z,7.03
2017-08-22T23:26:07.981Z,7.57
2017-08-22T23:28:36.295Z,7.37
2017-08-22T23:31:04.610Z,5.80
2017-08-22T23:33:32.944Z,7.27
2017-08-22T23:36:01.259Z,6.47
2017-08-22T23:38:29.566Z,6.77
2017-08-22T23:40:57.929Z,5.73
2017-08-22T23:43:26.230Z,5.30
2017-08-22T23:45:54.534Z,6.53
2017-08-22T23:48:22.873Z,7.13
2017-08-22T23:50:51.167Z,6.30
2017-08-22T23:53:19.473Z,7.20
2017-08-22T23:55:47.806Z,6.10
2017-08-22T23:58:16.110Z,6.53
